sensor_id;sensor_type;location;lat;lon;timestamp;pressure;altitude;pressure_sealevel;temperature;humidity
21545;BME280;10933;50.754;11.508;2023-04-19T00:01:03;98642.16;;;7.65;100.00
21545;BME280;10933;50.754;11.508;2023-04-19T00:03:30;98645.09;;;7.64;100.00
21545;BME280;10933;50.754;11.508;2023-04-19T00:05:56;98643.78;;;7.66;100.00
21545;BME280;10933;50.754;11.508;2023-04-19T00:08:25;98645.34;;;7.62;100.00
21545;BME280;10933;50.754;11.508;2023-04-19T00:10:52;98646.91;;;7.58;100.00
21545;BME280;10933;50.754;11.508;2023-04-19T00:13:18;98645.03;;;7.59;100.00
21545;BME280;10933;50.754;11.508;2023-04-19T00:15:44;98640.22;;;7.61;100.00
21545;BME280;10933;50.754;11.508;2023-04-19T00:18:10;98641.03;;;7.61;100.00
21545;BME280;10933;50.754;11.508;2023-04-19T00:20:38;98645.56;;;7.61;100.00
21545;BME280;10933;50.754;11.508;2023-04-19T00:23:04;98647.44;;;7.60;100.00
21545;BME280;10933;50.754;11.508;2023-04-19T00:25:30;98631.44;;;7.71;100.00
21545;BME280;10933;50.754;11.508;2023-04-19T00:27:56;98645.66;;;7.66;100.00
21545;BME280;10933;50.754;11.508;2023-04-19T00:30:23;98642.97;;;7.66;100.00
21545;BME280;10933;50.754;11.508;2023-04-19T00:32:49;98653.44;;;7.67;100.00
21545;BME280;10933;50.754;11.508;2023-04-19T00:35:15;98644.56;;;7.67;100.00
21545;BME280;10933;50.754;11.508;2023-04-19T00:37:41;98649.66;;;7.63;100.00
21545;BME280;10933;50.754;11.508;2023-04-19T00:40:08;98662.50;;;7.61;100.00
21545;BME280;10933;50.754;11.508;2023-04-19T00:42:34;98661.69;;;7.61;100.00
21545;BME280;10933;50.754;11.508;2023-04-19T00:45:00;98665.97;;;7.62;100.00
21545;BME280;10933;50.754;11.508;2023-04-19T00:47:27;98667.84;;;7.61;100.00
21545;BME280;10933;50.754;11.508;2023-04-19T00:49:53;98662.50;;;7.61;100.00
21545;BME280;10933;50.754;11.508;2023-04-19T00:52:20;98662.50;;;7.61;100.00
21545;BME280;10933;50.754;11.508;2023-04-19T00:54:47;98665.75;;;7.63;100.00
21545;BME280;10933;50.754;11.508;2023-04-19T00:57:14;98670.63;;;7.66;100.00
21545;BME280;10933;50.754;11.508;2023-04-19T00:59:41;98665.84;;;7.74;100.00
21545;BME280;10933;50.754;11.508;2023-04-19T01:02:08;98672.75;;;7.64;100.00
21545;BME280;10933;50.754;11.508;2023-04-19T01:04:34;98672.19;;;7.62;100.00
21545;BME280;10933;50.754;11.508;2023-04-19T01:07:02;98676.50;;;7.63;100.00
21545;BME280;10933;50.754;11.508;2023-04-19T01:09:28;98679.19;;;7.63;100.00
21545;BME280;10933;50.754;11.508;2023-04-19T01:11:54;98685.25;;;7.54;100.00
21545;BME280;10933;50.754;11.508;2023-04-19T01:14:20;98689.25;;;7.51;100.00
21545;BME280;10933;50.754;11.508;2023-04-19T01:16:47;98688.19;;;7.52;100.00
21545;BME280;10933;50.754;11.508;2023-04-19T01:19:13;98696.78;;;7.54;100.00
21545;BME280;10933;50.754;11.508;2023-04-19T01:21:39;98695.41;;;7.52;100.00
21545;BME280;10933;50.754;11.508;2023-04-19T01:24:05;98691.47;;;7.59;100.00
21545;BME280;10933;50.754;11.508;2023-04-19T01:26:32;98694.41;;;7.58;100.00
21545;BME280;10933;50.754;11.508;2023-04-19T01:28:58;98697.09;;;7.58;100.00
21545;BME280;10933;50.754;11.508;2023-04-19T01:31:24;98700.56;;;7.58;100.00
21545;BME280;10933;50.754;11.508;2023-04-19T01:33:50;98703.53;;;7.57;100.00
21545;BME280;10933;50.754;11.508;2023-04-19T01:36:16;98705.13;;;7.58;100.00
21545;BME280;10933;50.754;11.508;2023-04-19T01:38:42;98709.75;;;7.62;100.00
21545;BME280;10933;50.754;11.508;2023-04-19T01:41:08;98716.16;;;7.61;100.00
21545;BME280;10933;50.754;11.508;2023-04-19T01:43:34;98731.72;;;7.59;100.00
21545;BME280;10933;50.754;11.508;2023-04-19T01:46:01;98732.19;;;7.51;100.00
21545;BME280;10933;50.754;11.508;2023-04-19T01:48:27;98747.22;;;7.52;100.00
21545;BME280;10933;50.754;11.508;2023-04-19T01:50:53;98747.66;;;7.44;100.00
21545;BME280;10933;50.754;11.508;2023-04-19T01:53:19;98770.19;;;7.43;100.00
21545;BME280;10933;50.754;11.508;2023-04-19T01:55:45;98775.53;;;7.43;100.00
21545;BME280;10933;50.754;11.508;2023-04-19T01:58:11;98791.34;;;7.40;100.00
21545;BME280;10933;50.754;11.508;2023-04-19T02:00:37;98808.81;;;7.42;100.00
21545;BME280;10933;50.754;11.508;2023-04-19T02:03:03;98820.34;;;7.43;100.00
21545;BME280;10933;50.754;11.508;2023-04-19T02:05:29;98828.72;;;7.46;100.00
21545;BME280;10933;50.754;11.508;2023-04-19T02:07:55;98837.75;;;7.40;100.00
21545;BME280;10933;50.754;11.508;2023-04-19T02:10:22;98847.34;;;7.36;100.00
21545;BME280;10933;50.754;11.508;2023-04-19T02:12:48;98856.97;;;7.32;100.00
21545;BME280;10933;50.754;11.508;2023-04-19T02:15:14;98872.75;;;7.28;100.00
21545;BME280;10933;50.754;11.508;2023-04-19T02:17:40;98885.25;;;7.23;100.00
21545;BME280;10933;50.754;11.508;2023-04-19T02:20:07;98892.97;;;7.19;100.00
21545;BME280;10933;50.754;11.508;2023-04-19T02:22:34;98902.97;;;7.24;100.00
21545;BME280;10933;50.754;11.508;2023-04-19T02:25:00;98923.53;;;7.18;100.00
21545;BME280;10933;50.754;11.508;2023-04-19T02:27:26;98946.88;;;7.18;100.00
21545;BME280;10933;50.754;11.508;2023-04-19T02:29:52;98977.19;;;7.18;100.00
21545;BME280;10933;50.754;11.508;2023-04-19T02:32:18;98978.75;;;7.14;100.00
21545;BME280;10933;50.754;11.508;2023-04-19T02:34:44;98997.97;;;7.11;100.00
21545;BME280;10933;50.754;11.508;2023-04-19T02:37:11;99003.59;;;7.09;100.00
21545;BME280;10933;50.754;11.508;2023-04-19T02:39:37;99022.78;;;7.01;100.00
21545;BME280;10933;50.754;11.508;2023-04-19T02:42:04;99033.00;;;7.04;100.00
21545;BME280;10933;50.754;11.508;2023-04-19T02:44:30;99040.97;;;6.99;100.00
21545;BME280;10933;50.754;11.508;2023-04-19T02:46:56;99051.09;;;6.97;100.00
21545;BME280;10933;50.754;11.508;2023-04-19T02:49:22;99048.66;;;6.96;100.00
21545;BME280;10933;50.754;11.508;2023-04-19T02:51:50;99059.78;;;6.88;100.00
21545;BME280;10933;50.754;11.508;2023-04-19T02:54:17;99052.94;;;6.80;100.00
21545;BME280;10933;50.754;11.508;2023-04-19T02:56:43;99068.19;;;6.79;100.00
21545;BME280;10933;50.754;11.508;2023-04-19T02:59:09;98993.72;;;6.82;100.00
21545;BME280;10933;50.754;11.508;2023-04-19T03:01:35;98928.31;;;6.83;100.00
21545;BME280;10933;50.754;11.508;2023-04-19T03:04:01;98919.94;;;6.79;100.00
21545;BME280;10933;50.754;11.508;2023-04-19T03:06:27;98923.69;;;6.78;100.00
21545;BME280;10933;50.754;11.508;2023-04-19T03:08:54;98917.75;;;6.76;100.00
21545;BME280;10933;50.754;11.508;2023-04-19T03:11:20;98901.44;;;6.77;100.00
21545;BME280;10933;50.754;11.508;2023-04-19T03:13:46;98899.00;;;6.76;100.00
21545;BME280;10933;50.754;11.508;2023-04-19T03:16:12;98900.50;;;6.72;100.00
21545;BME280;10933;50.754;11.508;2023-04-19T03:18:38;98894.41;;;6.60;100.00
21545;BME280;10933;50.754;11.508;2023-04-19T03:21:05;98889.97;;;6.65;100.00
21545;BME280;10933;50.754;11.508;2023-04-19T03:23:34;98885.22;;;6.56;100.00
21545;BME280;10933;50.754;11.508;2023-04-19T03:26:00;98887.59;;;6.52;100.00
21545;BME280;10933;50.754;11.508;2023-04-19T03:28:27;98873.88;;;6.48;100.00
21545;BME280;10933;50.754;11.508;2023-04-19T03:30:53;98871.63;;;6.45;100.00
21545;BME280;10933;50.754;11.508;2023-04-19T03:33:19;98860.91;;;6.45;100.00
21545;BME280;10933;50.754;11.508;2023-04-19T03:35:45;98861.41;;;6.42;100.00
21545;BME280;10933;50.754;11.508;2023-04-19T03:38:11;98875.28;;;6.39;100.00
21545;BME280;10933;50.754;11.508;2023-04-19T03:40:37;98877.78;;;6.29;100.00
21545;BME280;10933;50.754;11.508;2023-04-19T03:43:04;98878.50;;;6.25;100.00
21545;BME280;10933;50.754;11.508;2023-04-19T03:45:30;98876.41;;;6.27;100.00
21545;BME280;10933;50.754;11.508;2023-04-19T03:47:56;98881.50;;;6.28;100.00
21545;BME280;10933;50.754;11.508;2023-04-19T03:50:22;98875.84;;;6.25;100.00
21545;BME280;10933;50.754;11.508;2023-04-19T03:52:48;98879.78;;;6.22;100.00
21545;BME280;10933;50.754;11.508;2023-04-19T03:55:14;98875.47;;;6.21;100.00
21545;BME280;10933;50.754;11.508;2023-04-19T03:57:40;98880.75;;;6.16;100.00
21545;BME280;10933;50.754;11.508;2023-04-19T04:00:07;98875.06;;;6.12;100.00
21545;BME280;10933;50.754;11.508;2023-04-19T04:02:36;98873.22;;;6.01;100.00
21545;BME280;10933;50.754;11.508;2023-04-19T04:05:02;98871.13;;;6.03;100.00
21545;BME280;10933;50.754;11.508;2023-04-19T04:07:29;98872.41;;;6.01;100.00
21545;BME280;10933;50.754;11.508;2023-04-19T04:09:55;98873.34;;;5.95;100.00
21545;BME280;10933;50.754;11.508;2023-04-19T04:12:21;98872.22;;;5.90;100.00
21545;BME280;10933;50.754;11.508;2023-04-19T04:14:47;98873.59;;;5.81;100.00
21545;BME280;10933;50.754;11.508;2023-04-19T04:17:13;98876.66;;;5.73;100.00
21545;BME280;10933;50.754;11.508;2023-04-19T04:19:39;98883.88;;;5.61;100.00
21545;BME280;10933;50.754;11.508;2023-04-19T04:22:06;98881.56;;;5.53;100.00
21545;BME280;10933;50.754;11.508;2023-04-19T04:24:37;98894.38;;;5.51;100.00
21545;BME280;10933;50.754;11.508;2023-04-19T04:27:06;98890.06;;;5.50;100.00
21545;BME280;10933;50.754;11.508;2023-04-19T04:29:35;98901.44;;;5.45;100.00
21545;BME280;10933;50.754;11.508;2023-04-19T04:32:03;98908.66;;;5.45;100.00
21545;BME280;10933;50.754;11.508;2023-04-19T04:34:29;98911.81;;;5.42;100.00
21545;BME280;10933;50.754;11.508;2023-04-19T04:36:55;98917.63;;;5.39;100.00
21545;BME280;10933;50.754;11.508;2023-04-19T04:39:22;98911.69;;;5.37;100.00
21545;BME280;10933;50.754;11.508;2023-04-19T04:41:49;98917.38;;;5.28;100.00
21545;BME280;10933;50.754;11.508;2023-04-19T04:44:16;98926.34;;;5.34;100.00
21545;BME280;10933;50.754;11.508;2023-04-19T04:46:43;98932.38;;;5.29;100.00
21545;BME280;10933;50.754;11.508;2023-04-19T04:49:09;98938.53;;;5.30;100.00
21545;BME280;10933;50.754;11.508;2023-04-19T04:51:35;98943.44;;;5.21;100.00
21545;BME280;10933;50.754;11.508;2023-04-19T04:54:02;98941.78;;;5.20;100.00
21545;BME280;10933;50.754;11.508;2023-04-19T04:56:30;98947.59;;;5.17;100.00
21545;BME280;10933;50.754;11.508;2023-04-19T04:58:56;98947.81;;;5.16;100.00
21545;BME280;10933;50.754;11.508;2023-04-19T05:01:22;98960.13;;;5.05;100.00
21545;BME280;10933;50.754;11.508;2023-04-19T05:03:49;98964.91;;;5.03;100.00
21545;BME280;10933;50.754;11.508;2023-04-19T05:06:16;98983.28;;;5.11;100.00
21545;BME280;10933;50.754;11.508;2023-04-19T05:08:42;99004.72;;;4.93;100.00
21545;BME280;10933;50.754;11.508;2023-04-19T05:11:09;99014.13;;;4.84;100.00
21545;BME280;10933;50.754;11.508;2023-04-19T05:13:35;99022.56;;;4.81;100.00
21545;BME280;10933;50.754;11.508;2023-04-19T05:16:01;99036.50;;;4.83;100.00
21545;BME280;10933;50.754;11.508;2023-04-19T05:18:27;99043.59;;;4.77;100.00
21545;BME280;10933;50.754;11.508;2023-04-19T05:20:53;99052.13;;;4.86;100.00
21545;BME280;10933;50.754;11.508;2023-04-19T05:23:19;99055.84;;;4.85;100.00
21545;BME280;10933;50.754;11.508;2023-04-19T05:25:46;99064.44;;;4.87;100.00
21545;BME280;10933;50.754;11.508;2023-04-19T05:28:12;99066.06;;;4.88;100.00
21545;BME280;10933;50.754;11.508;2023-04-19T05:30:38;99073.03;;;4.89;100.00
21545;BME280;10933;50.754;11.508;2023-04-19T05:33:05;99089.81;;;4.78;100.00
21545;BME280;10933;50.754;11.508;2023-04-19T05:35:31;99089.16;;;4.82;100.00
21545;BME280;10933;50.754;11.508;2023-04-19T05:37:57;99090.34;;;4.86;100.00
21545;BME280;10933;50.754;11.508;2023-04-19T05:40:23;99098.59;;;4.85;100.00
21545;BME280;10933;50.754;11.508;2023-04-19T05:42:49;99103.19;;;4.78;100.00
21545;BME280;10933;50.754;11.508;2023-04-19T05:45:16;99103.47;;;4.88;100.00
21545;BME280;10933;50.754;11.508;2023-04-19T05:47:43;99114.63;;;4.85;100.00
21545;BME280;10933;50.754;11.508;2023-04-19T05:50:10;99113.47;;;4.92;100.00
21545;BME280;10933;50.754;11.508;2023-04-19T05:52:36;99118.19;;;4.97;100.00
21545;BME280;10933;50.754;11.508;2023-04-19T05:55:03;99118.88;;;5.04;100.00
21545;BME280;10933;50.754;11.508;2023-04-19T05:57:29;99118.44;;;5.07;100.00
21545;BME280;10933;50.754;11.508;2023-04-19T05:59:55;99126.91;;;5.04;100.00
21545;BME280;10933;50.754;11.508;2023-04-19T06:02:21;99135.69;;;4.93;100.00
21545;BME280;10933;50.754;11.508;2023-04-19T06:04:47;99133.00;;;4.93;100.00
21545;BME280;10933;50.754;11.508;2023-04-19T06:07:14;99149.78;;;5.00;100.00
21545;BME280;10933;50.754;11.508;2023-04-19T06:09:40;99163.38;;;4.98;100.00
21545;BME280;10933;50.754;11.508;2023-04-19T06:12:06;99164.78;;;5.01;100.00
21545;BME280;10933;50.754;11.508;2023-04-19T06:14:32;99163.00;;;5.13;100.00
21545;BME280;10933;50.754;11.508;2023-04-19T06:16:58;99166.47;;;5.14;100.00
21545;BME280;10933;50.754;11.508;2023-04-19T06:19:24;99192.94;;;5.22;100.00
21545;BME280;10933;50.754;11.508;2023-04-19T06:21:50;99197.38;;;5.28;100.00
21545;BME280;10933;50.754;11.508;2023-04-19T06:24:16;99217.88;;;5.16;100.00
21545;BME280;10933;50.754;11.508;2023-04-19T06:26:42;99234.81;;;5.10;100.00
21545;BME280;10933;50.754;11.508;2023-04-19T06:29:08;99243.44;;;5.12;100.00
21545;BME280;10933;50.754;11.508;2023-04-19T06:31:35;99255.84;;;5.24;100.00
21545;BME280;10933;50.754;11.508;2023-04-19T06:34:01;99262.34;;;5.28;100.00
21545;BME280;10933;50.754;11.508;2023-04-19T06:36:27;99282.66;;;5.36;100.00
21545;BME280;10933;50.754;11.508;2023-04-19T06:38:53;99321.72;;;5.37;100.00
21545;BME280;10933;50.754;11.508;2023-04-19T06:41:19;99328.44;;;5.46;100.00
21545;BME280;10933;50.754;11.508;2023-04-19T06:43:45;99358.81;;;5.52;100.00
21545;BME280;10933;50.754;11.508;2023-04-19T06:46:12;99394.72;;;5.63;100.00
21545;BME280;10933;50.754;11.508;2023-04-19T06:48:39;99414.13;;;5.76;100.00
21545;BME280;10933;50.754;11.508;2023-04-19T06:51:05;99436.25;;;5.83;100.00
21545;BME280;10933;50.754;11.508;2023-04-19T06:53:31;99463.97;;;5.96;100.00
21545;BME280;10933;50.754;11.508;2023-04-19T06:55:59;99491.50;;;6.03;100.00
21545;BME280;10933;50.754;11.508;2023-04-19T06:58:29;99504.59;;;6.29;100.00
21545;BME280;10933;50.754;11.508;2023-04-19T07:00:57;99521.09;;;6.44;100.00
21545;BME280;10933;50.754;11.508;2023-04-19T07:03:24;99558.91;;;6.55;100.00
21545;BME280;10933;50.754;11.508;2023-04-19T07:05:50;99579.16;;;6.51;100.00
21545;BME280;10933;50.754;11.508;2023-04-19T07:08:17;99601.56;;;6.74;100.00
21545;BME280;10933;50.754;11.508;2023-04-19T07:10:43;99627.59;;;6.86;100.00
21545;BME280;10933;50.754;11.508;2023-04-19T07:13:12;99640.88;;;7.29;100.00
21545;BME280;10933;50.754;11.508;2023-04-19T07:15:38;99668.34;;;7.73;100.00
21545;BME280;10933;50.754;11.508;2023-04-19T07:18:05;99698.22;;;7.64;100.00
21545;BME280;10933;50.754;11.508;2023-04-19T07:20:31;99732.09;;;7.11;100.00
21545;BME280;10933;50.754;11.508;2023-04-19T07:22:58;99741.13;;;6.98;100.00
21545;BME280;10933;50.754;11.508;2023-04-19T07:25:24;99739.63;;;6.84;100.00
21545;BME280;10933;50.754;11.508;2023-04-19T07:27:52;99758.88;;;6.56;100.00
21545;BME280;10933;50.754;11.508;2023-04-19T07:30:19;99750.50;;;6.45;100.00
21545;BME280;10933;50.754;11.508;2023-04-19T07:32:45;99719.53;;;6.74;100.00
21545;BME280;10933;50.754;11.508;2023-04-19T07:35:12;99715.66;;;6.89;100.00
21545;BME280;10933;50.754;11.508;2023-04-19T07:37:38;99742.25;;;7.08;100.00
21545;BME280;10933;50.754;11.508;2023-04-19T07:40:05;99744.66;;;8.37;100.00
21545;BME280;10933;50.754;11.508;2023-04-19T07:42:31;99807.47;;;8.89;100.00
21545;BME280;10933;50.754;11.508;2023-04-19T07:44:57;99854.00;;;10.12;100.00
21545;BME280;10933;50.754;11.508;2023-04-19T07:47:24;99924.91;;;10.81;100.00
21545;BME280;10933;50.754;11.508;2023-04-19T07:49:54;99965.28;;;10.47;100.00
21545;BME280;10933;50.754;11.508;2023-04-19T07:52:20;99963.53;;;9.66;100.00
21545;BME280;10933;50.754;11.508;2023-04-19T07:54:46;99963.03;;;9.34;100.00
21545;BME280;10933;50.754;11.508;2023-04-19T07:57:12;99960.69;;;9.61;100.00
21545;BME280;10933;50.754;11.508;2023-04-19T07:59:38;99929.53;;;12.08;100.00
21545;BME280;10933;50.754;11.508;2023-04-19T08:02:05;100016.59;;;12.49;100.00
21545;BME280;10933;50.754;11.508;2023-04-19T08:04:32;100362.44;;;14.18;100.00
21545;BME280;10933;50.754;11.508;2023-04-19T08:06:58;100380.28;;;14.90;100.00
21545;BME280;10933;50.754;11.508;2023-04-19T08:09:24;100387.34;;;16.48;100.00
21545;BME280;10933;50.754;11.508;2023-04-19T08:11:50;100396.34;;;15.34;100.00
21545;BME280;10933;50.754;11.508;2023-04-19T08:14:18;100388.44;;;15.69;100.00
21545;BME280;10933;50.754;11.508;2023-04-19T08:16:44;100383.94;;;15.48;91.64
21545;BME280;10933;50.754;11.508;2023-04-19T08:19:10;100374.81;;;16.37;91.28
21545;BME280;10933;50.754;11.508;2023-04-19T08:21:37;100379.56;;;15.89;90.62
21545;BME280;10933;50.754;11.508;2023-04-19T08:24:03;100372.69;;;14.92;92.48
21545;BME280;10933;50.754;11.508;2023-04-19T08:26:29;100364.09;;;15.10;95.50
21545;BME280;10933;50.754;11.508;2023-04-19T08:28:55;100362.72;;;14.70;95.47
21545;BME280;10933;50.754;11.508;2023-04-19T08:31:21;100363.25;;;14.72;94.91
21545;BME280;10933;50.754;11.508;2023-04-19T08:33:48;100359.59;;;15.68;83.49
21545;BME280;10933;50.754;11.508;2023-04-19T08:36:14;100360.56;;;16.04;84.30
21545;BME280;10933;50.754;11.508;2023-04-19T08:38:41;100369.63;;;17.57;73.89
21545;BME280;10933;50.754;11.508;2023-04-19T08:41:07;100373.34;;;17.97;66.11
21545;BME280;10933;50.754;11.508;2023-04-19T08:43:36;100364.81;;;16.93;67.34
21545;BME280;10933;50.754;11.508;2023-04-19T08:46:04;100360.44;;;17.28;70.34
21545;BME280;10933;50.754;11.508;2023-04-19T08:48:32;100351.56;;;17.77;71.75
21545;BME280;10933;50.754;11.508;2023-04-19T08:50:59;100359.19;;;17.85;69.00
21545;BME280;10933;50.754;11.508;2023-04-19T08:53:28;100355.81;;;18.03;72.85
21545;BME280;10933;50.754;11.508;2023-04-19T08:55:55;100347.97;;;19.38;63.91
21545;BME280;10933;50.754;11.508;2023-04-19T08:58:24;100349.59;;;20.86;58.31
21545;BME280;10933;50.754;11.508;2023-04-19T09:00:51;100358.28;;;19.22;53.31
21545;BME280;10933;50.754;11.508;2023-04-19T09:03:17;100344.53;;;18.64;61.17
21545;BME280;10933;50.754;11.508;2023-04-19T09:05:43;100342.28;;;19.34;60.47
21545;BME280;10933;50.754;11.508;2023-04-19T09:08:27;100341.97;;;18.83;62.63
21545;BME280;10933;50.754;11.508;2023-04-19T09:10:55;100338.13;;;18.40;55.07
21545;BME280;10933;50.754;11.508;2023-04-19T09:13:22;100330.22;;;18.38;58.07
21545;BME280;10933;50.754;11.508;2023-04-19T09:15:49;100335.53;;;17.50;58.96
21545;BME280;10933;50.754;11.508;2023-04-19T09:18:16;100327.22;;;18.40;60.77
21545;BME280;10933;50.754;11.508;2023-04-19T09:20:43;100328.44;;;20.16;60.29
21545;BME280;10933;50.754;11.508;2023-04-19T09:23:12;100337.59;;;19.64;55.01
21545;BME280;10933;50.754;11.508;2023-04-19T09:25:39;100323.63;;;18.84;59.75
21545;BME280;10933;50.754;11.508;2023-04-19T09:28:13;100317.09;;;19.85;59.90
21545;BME280;10933;50.754;11.508;2023-04-19T09:30:40;100334.22;;;18.90;53.30
21545;BME280;10933;50.754;11.508;2023-04-19T09:33:07;100331.53;;;19.67;51.29
21545;BME280;10933;50.754;11.508;2023-04-19T09:35:44;100323.13;;;18.81;52.22
21545;BME280;10933;50.754;11.508;2023-04-19T09:38:13;100321.44;;;18.02;51.74
21545;BME280;10933;50.754;11.508;2023-04-19T09:40:39;100321.31;;;19.25;53.92
21545;BME280;10933;50.754;11.508;2023-04-19T09:43:06;100312.38;;;20.47;47.59
21545;BME280;10933;50.754;11.508;2023-04-19T09:45:40;100303.41;;;19.37;46.16
21545;BME280;10933;50.754;11.508;2023-04-19T09:48:07;100295.69;;;17.69;52.05
21545;BME280;10933;50.754;11.508;2023-04-19T09:50:34;100291.78;;;16.95;60.44
21545;BME280;10933;50.754;11.508;2023-04-19T09:53:02;100287.03;;;17.42;61.92
21545;BME280;10933;50.754;11.508;2023-04-19T09:55:29;100285.59;;;17.59;57.12
21545;BME280;10933;50.754;11.508;2023-04-19T09:57:55;100283.84;;;18.67;59.26
21545;BME280;10933;50.754;11.508;2023-04-19T10:00:22;100281.19;;;20.43;55.94
21545;BME280;10933;50.754;11.508;2023-04-19T10:02:51;100282.66;;;20.17;49.19
21545;BME280;10933;50.754;11.508;2023-04-19T10:05:23;100287.53;;;20.57;45.46
21545;BME280;10933;50.754;11.508;2023-04-19T10:07:50;100289.34;;;20.48;50.43
21545;BME280;10933;50.754;11.508;2023-04-19T10:10:17;100278.56;;;18.03;47.30
21545;BME280;10933;50.754;11.508;2023-04-19T10:12:48;100264.31;;;18.11;49.16
21545;BME280;10933;50.754;11.508;2023-04-19T10:15:16;100271.47;;;19.04;48.78
21545;BME280;10933;50.754;11.508;2023-04-19T10:17:43;100270.44;;;19.00;50.14
21545;BME280;10933;50.754;11.508;2023-04-19T10:20:12;100267.31;;;19.35;51.30
21545;BME280;10933;50.754;11.508;2023-04-19T10:22:42;100263.72;;;18.87;51.21
21545;BME280;10933;50.754;11.508;2023-04-19T10:25:13;100265.31;;;18.59;48.61
21545;BME280;10933;50.754;11.508;2023-04-19T10:27:44;100259.25;;;19.68;52.14
21545;BME280;10933;50.754;11.508;2023-04-19T10:30:23;100247.16;;;17.51;61.88
21545;BME280;10933;50.754;11.508;2023-04-19T10:32:56;100232.38;;;16.92;62.87
21545;BME280;10933;50.754;11.508;2023-04-19T10:35:23;100234.44;;;17.26;63.74
21545;BME280;10933;50.754;11.508;2023-04-19T10:38:10;100222.06;;;16.69;68.57
21545;BME280;10933;50.754;11.508;2023-04-19T10:40:59;100223.31;;;17.17;64.95
21545;BME280;10933;50.754;11.508;2023-04-19T10:43:33;100215.94;;;17.13;62.89
21545;BME280;10933;50.754;11.508;2023-04-19T10:46:13;100209.91;;;17.31;76.85
21545;BME280;10933;50.754;11.508;2023-04-19T10:48:50;100207.97;;;19.55;59.52
21545;BME280;10933;50.754;11.508;2023-04-19T10:51:26;100209.25;;;15.98;68.71
21545;BME280;10933;50.754;11.508;2023-04-19T10:54:28;100209.41;;;17.14;77.83
21545;BME280;10933;50.754;11.508;2023-04-19T10:57:09;100200.59;;;18.26;63.97
21545;BME280;10933;50.754;11.508;2023-04-19T10:59:39;100196.94;;;19.17;61.33
21545;BME280;10933;50.754;11.508;2023-04-19T11:07:19;100177.66;;;17.38;71.66
21545;BME280;10933;50.754;11.508;2023-04-19T11:09:47;100176.56;;;17.39;68.64
21545;BME280;10933;50.754;11.508;2023-04-19T11:12:14;100182.22;;;18.65;61.64
21545;BME280;10933;50.754;11.508;2023-04-19T11:14:46;100178.69;;;18.60;56.34
21545;BME280;10933;50.754;11.508;2023-04-19T11:17:16;100171.56;;;18.35;59.97
21545;BME280;10933;50.754;11.508;2023-04-19T11:20:03;100163.16;;;17.97;63.96
21545;BME280;10933;50.754;11.508;2023-04-19T11:22:45;100170.66;;;18.44;62.02
21545;BME280;10933;50.754;11.508;2023-04-19T11:25:12;100158.13;;;18.67;65.32
21545;BME280;10933;50.754;11.508;2023-04-19T11:27:40;100152.69;;;18.09;61.36
21545;BME280;10933;50.754;11.508;2023-04-19T11:30:08;100148.84;;;18.10;59.73
21545;BME280;10933;50.754;11.508;2023-04-19T11:32:35;100157.53;;;16.29;67.81
21545;BME280;10933;50.754;11.508;2023-04-19T11:35:06;100149.81;;;16.92;68.59
21545;BME280;10933;50.754;11.508;2023-04-19T11:37:38;100149.56;;;15.46;68.98
21545;BME280;10933;50.754;11.508;2023-04-19T11:40:05;100138.72;;;15.51;74.87
21545;BME280;10933;50.754;11.508;2023-04-19T11:42:32;100131.97;;;14.01;85.22
21545;BME280;10933;50.754;11.508;2023-04-19T11:44:58;100130.56;;;12.52;100.00
21545;BME280;10933;50.754;11.508;2023-04-19T11:47:28;100125.28;;;11.90;100.00
21545;BME280;10933;50.754;11.508;2023-04-19T11:49:55;100116.28;;;12.79;100.00
21545;BME280;10933;50.754;11.508;2023-04-19T11:52:23;100115.31;;;14.67;100.00
21545;BME280;10933;50.754;11.508;2023-04-19T11:54:53;100120.13;;;15.17;98.84
21545;BME280;10933;50.754;11.508;2023-04-19T11:57:31;100122.16;;;16.24;94.32
21545;BME280;10933;50.754;11.508;2023-04-19T12:00:08;100123.22;;;17.67;83.78
21545;BME280;10933;50.754;11.508;2023-04-19T12:02:43;100119.72;;;15.71;79.64
21545;BME280;10933;50.754;11.508;2023-04-19T12:05:14;100122.03;;;15.22;89.15
21545;BME280;10933;50.754;11.508;2023-04-19T12:10:25;100117.78;;;14.73;96.80
21545;BME280;10933;50.754;11.508;2023-04-19T12:12:51;100109.94;;;15.96;82.31
21545;BME280;10933;50.754;11.508;2023-04-19T12:15:18;100110.47;;;14.74;83.17
21545;BME280;10933;50.754;11.508;2023-04-19T12:18:01;100108.69;;;12.98;93.96
21545;BME280;10933;50.754;11.508;2023-04-19T12:22:54;100105.16;;;11.98;100.00
21545;BME280;10933;50.754;11.508;2023-04-19T12:25:20;100121.03;;;11.32;100.00
21545;BME280;10933;50.754;11.508;2023-04-19T12:27:46;100103.09;;;11.43;100.00
21545;BME280;10933;50.754;11.508;2023-04-19T12:30:13;100102.25;;;11.26;100.00
21545;BME280;10933;50.754;11.508;2023-04-19T12:32:39;100095.34;;;13.40;100.00
21545;BME280;10933;50.754;11.508;2023-04-19T12:35:05;100092.59;;;14.93;100.00
21545;BME280;10933;50.754;11.508;2023-04-19T12:37:31;100095.16;;;14.58;98.92
21545;BME280;10933;50.754;11.508;2023-04-19T12:39:58;100096.50;;;14.55;100.00
21545;BME280;10933;50.754;11.508;2023-04-19T12:42:24;100095.31;;;13.67;100.00
21545;BME280;10933;50.754;11.508;2023-04-19T12:44:50;100085.28;;;13.67;100.00
21545;BME280;10933;50.754;11.508;2023-04-19T12:47:16;100078.13;;;14.72;100.00
21545;BME280;10933;50.754;11.508;2023-04-19T12:49:42;100072.56;;;14.47;100.00
21545;BME280;10933;50.754;11.508;2023-04-19T12:52:08;100080.03;;;13.23;100.00
21545;BME280;10933;50.754;11.508;2023-04-19T12:54:34;100069.34;;;12.29;100.00
21545;BME280;10933;50.754;11.508;2023-04-19T12:57:00;100059.84;;;12.27;100.00